Terminal Aerodrome Forecast
Issued by NWS

Home | Current Version | Previous Version | Text Only | Print | Product List | Glossary On
Versions: 1 2 3 4 5 6 7 8 9 10 11 12 13 14 15 16 17
988
FTUS43 KPAH 202320
TAFCGI
TAF
KCGI 202320Z 2100/2124 18007KT P6SM OVC014
     FM210300 18007KT 5SM -DZ BR OVC008
     FM210700 18008KT 3SM -DZ BR OVC003
     FM211400 17009KT 1SM -DZ BR OVC003
     FM211800 18012KT P6SM OVC005=

USA.gov is the U.S. government's official web portal to all federal, state and local government web resources and services.